Time;durP1;ratioP1;P1;durP2;ratioP2;P2;SDS_P1;SDS_P2;PMS_P1;PMS_P2;Temp;Humidity;BMP_temperature;BMP_pressure;BME280_temperature;BME280_humidity;BME280_pressure;Samples;Min_cycle;Max_cycle;Signal;HPM_P1;HPM_P2
2022/03/16 00:00:13;;;;;;;14.38;8.48;;;;;;;8.06;52.65;102402.03;4961970;28;123986;-62
2022/03/16 00:02:56;;;;;;;16.73;8.80;;;;;;;8.04;53.00;102403.81;4957499;28;109856;-64
2022/03/16 00:05:23;;;;;;;14.77;8.40;;;;;;;8.01;52.94;102399.44;4957724;28;108710;-62
2022/03/16 00:07:50;;;;;;;13.00;7.22;;;;;;;7.97;53.03;102403.88;4956303;28;123817;-62
2022/03/16 00:10:17;;;;;;;15.30;8.35;;;;;;;7.94;53.12;102409.16;4958082;28;124588;-61
2022/03/16 00:12:44;;;;;;;14.25;8.77;;;;;;;7.92;52.92;102405.66;4961428;28;110372;-62
2022/03/16 00:15:11;;;;;;;19.40;8.23;;;;;;;7.90;52.75;102412.72;4964332;28;108999;-62
2022/03/16 00:17:39;;;;;;;14.68;8.30;;;;;;;7.87;52.81;102423.28;4956042;28;124997;-62
2022/03/16 00:20:07;;;;;;;13.25;8.05;;;;;;;7.83;52.88;102421.56;4960095;28;123929;-62
2022/03/16 00:22:34;;;;;;;15.48;7.95;;;;;;;7.81;53.14;102418.06;4959737;28;109657;-62
2022/03/16 00:25:02;;;;;;;17.92;9.90;;;;;;;7.77;52.98;102421.63;4962765;28;109164;-62
2022/03/16 00:27:29;;;;;;;16.65;9.45;;;;;;;7.76;53.05;102425.13;4953390;28;123639;-62
2022/03/16 00:29:56;;;;;;;21.88;9.52;;;;;;;7.74;53.20;102422.53;4951928;28;123790;-62
2022/03/16 00:32:23;;;;;;;18.20;10.05;;;;;;;7.73;53.38;102417.28;4966051;28;109631;-62
2022/03/16 00:34:50;;;;;;;21.20;10.27;;;;;;;7.72;53.45;102415.50;4955560;28;110221;-61
2022/03/16 00:37:20;;;;;;;19.38;10.38;;;;;;;7.72;53.42;102412.88;4955131;28;123541;-61
2022/03/16 00:39:47;;;;;;;16.80;9.63;;;;;;;7.69;53.39;102416.41;4955537;28;124043;-62
2022/03/16 00:42:14;;;;;;;19.15;9.70;;;;;;;7.68;53.36;102421.69;4939651;28;108096;-61
2022/03/16 00:44:41;;;;;;;19.45;9.82;;;;;;;7.66;53.18;102412.91;4963213;28;109117;-61
2022/03/16 00:47:09;;;;;;;18.90;9.70;;;;;;;7.64;53.45;102425.25;4964367;28;124048;-61
2022/03/16 00:49:36;;;;;;;21.48;9.80;;;;;;;7.63;53.38;102428.75;4964311;28;122146;-61
2022/03/16 00:52:04;;;;;;;21.33;10.30;;;;;;;7.60;53.67;102425.25;4960967;28;108447;-62
2022/03/16 00:54:31;;;;;;;17.45;9.25;;;;;;;7.57;53.45;102425.31;4962332;28;109878;-61
2022/03/16 00:57:01;;;;;;;19.15;9.10;;;;;;;7.55;53.39;102431.44;4961165;28;124937;-61
2022/03/16 00:59:28;;;;;;;18.95;10.23;;;;;;;7.51;53.40;102420.03;4957175;28;123290;-61
2022/03/16 01:01:57;;;;;;;19.70;9.00;;;;;;;7.47;53.26;102423.59;4956214;28;108313;-61
2022/03/16 01:04:24;;;;;;;20.27;9.75;;;;;;;7.39;53.14;102420.16;4955645;28;108100;-62
2022/03/16 01:06:54;;;;;;;19.88;9.50;;;;;;;7.31;53.49;102421.94;4958875;28;124366;-61
2022/03/16 01:09:22;;;;;;;16.80;9.05;;;;;;;7.25;53.43;102424.59;4967799;28;123751;-61
2022/03/16 01:11:49;;;;;;;32.85;9.25;;;;;;;7.19;53.23;102415.84;4961049;28;108147;-61
2022/03/16 01:14:17;;;;;;;20.08;9.40;;;;;;;7.12;53.56;102411.53;4963879;28;109262;-61
2022/03/16 01:16:45;;;;;;;27.05;10.57;;;;;;;7.05;53.73;102417.69;4960210;28;123226;-62
2022/03/16 01:19:15;;;;;;;40.30;10.02;;;;;;;6.99;53.43;102415.97;4963890;28;122723;-63
2022/03/16 01:21:42;;;;;;;24.35;9.68;;;;;;;6.93;53.67;102415.09;4959610;28;109314;-62
2022/03/16 01:24:09;;;;;;;18.67;9.45;;;;;;;6.88;53.90;102423.03;4958916;28;109747;-62
2022/03/16 01:26:36;;;;;;;17.90;8.80;;;;;;;6.85;54.07;102422.19;4960059;28;123517;-62
2022/03/16 01:29:04;;;;;;;16.48;8.88;;;;;;;6.83;54.14;102415.16;4962261;28;124092;-62
2022/03/16 01:31:31;;;;;;;19.88;8.85;;;;;;;6.82;53.97;102416.03;4969381;28;108459;-62
2022/03/16 01:33:59;;;;;;;23.52;8.65;;;;;;;6.78;53.90;102405.50;4960835;28;108163;-62
2022/03/16 01:36:26;;;;;;;29.45;8.68;;;;;;;6.74;54.04;102399.41;4952672;28;124055;-62
2022/03/16 01:38:53;;;;;;;27.77;8.68;;;;;;;6.69;54.30;102406.44;4958958;28;124281;-62
2022/03/16 01:41:22;;;;;;;18.75;9.38;;;;;;;6.64;54.20;102400.31;4950892;28;110117;-61
2022/03/16 01:43:54;;;;;;;20.63;9.18;;;;;;;6.57;54.13;102403.84;4959127;28;109357;-62
2022/03/16 01:46:21;;;;;;;18.27;9.48;;;;;;;6.52;54.33;102409.13;4962790;28;123693;-61
2022/03/16 01:48:53;;;;;;;20.63;10.15;;;;;;;6.48;54.57;102406.50;4962897;28;124789;-61
2022/03/16 01:51:21;;;;;;;21.13;10.50;;;;;;;6.45;54.68;102396.00;4957529;28;108704;-61
2022/03/16 01:53:49;;;;;;;20.23;10.45;;;;;;;6.42;54.57;102397.75;4941101;28;109106;-61
2022/03/16 01:56:17;;;;;;;21.42;11.00;;;;;;;6.43;54.91;102399.50;4961151;28;123792;-61
2022/03/16 01:58:45;;;;;;;24.25;11.65;;;;;;;6.47;54.96;102394.22;4948930;28;122979;-61
2022/03/16 02:01:14;;;;;;;22.98;12.63;;;;;;;6.49;54.94;102384.56;4957750;28;109410;-61
2022/03/16 02:03:43;;;;;;;22.35;11.65;;;;;;;6.51;55.02;102385.44;4959465;28;109049;-61
2022/03/16 02:06:10;;;;;;;26.30;12.98;;;;;;;6.53;55.31;102373.16;4956322;28;123297;-61
2022/03/16 02:08:38;;;;;;;23.63;12.02;;;;;;;6.56;55.26;102381.03;4967994;28;124724;-61
2022/03/16 02:11:05;;;;;;;21.25;11.68;;;;;;;6.58;55.33;102380.16;4963443;28;110235;-61
2022/03/16 02:13:34;;;;;;;26.65;12.27;;;;;;;6.60;55.29;102375.75;4958649;28;110075;-61
2022/03/16 02:16:03;;;;;;;24.27;12.85;;;;;;;6.65;55.46;102373.13;4959671;28;123895;-61
2022/03/16 02:18:30;;;;;;;21.42;12.32;;;;;;;6.67;55.27;102359.91;4960521;28;124826;-62
2022/03/16 02:21:00;;;;;;;24.58;12.73;;;;;;;6.70;55.63;102355.53;4951714;28;109430;-61
2022/03/16 02:23:27;;;;;;;26.70;13.23;;;;;;;6.71;55.39;102352.03;4953960;28;110214;-62
2022/03/16 02:25:55;;;;;;;25.10;12.80;;;;;;;6.73;55.67;102345.00;4963252;28;124733;-62
2022/03/16 02:28:23;;;;;;;24.65;12.32;;;;;;;6.74;55.37;102346.75;4955095;28;123959;-62
2022/03/16 02:30:50;;;;;;;24.58;12.73;;;;;;;6.76;55.60;102350.25;4963013;28;108483;-61
2022/03/16 02:33:17;;;;;;;22.13;12.45;;;;;;;6.79;55.77;102350.22;4959912;28;110955;-62
2022/03/16 02:35:46;;;;;;;23.63;12.25;;;;;;;6.81;55.55;102353.72;4959545;28;123333;-63
2022/03/16 02:38:13;;;;;;;27.90;13.30;;;;;;;6.83;55.61;102351.94;4958502;28;123322;-62
2022/03/16 02:40:40;;;;;;;26.13;13.18;;;;;;;6.87;55.85;102351.94;4955785;28;108482;-62
2022/03/16 02:43:08;;;;;;;25.38;13.60;;;;;;;6.90;55.69;102351.94;4968702;28;109887;-62
2022/03/16 02:45:35;;;;;;;27.90;13.77;;;;;;;6.92;55.60;102344.91;4966703;28;122790;-61
2022/03/16 02:48:03;;;;;;;24.95;13.57;;;;;;;6.92;55.84;102351.03;4954701;28;124463;-62
2022/03/16 02:50:31;;;;;;;26.63;13.30;;;;;;;6.96;55.87;102351.88;4940375;28;108238;-62
2022/03/16 02:52:59;;;;;;;27.25;13.60;;;;;;;6.98;55.75;102347.50;4958137;28;109000;-62
2022/03/16 02:55:47;;;;;;;24.60;13.55;;;;;;;6.99;55.62;102343.97;4954773;28;124152;-62
2022/03/16 02:58:15;;;;;;;24.10;13.00;;;;;;;6.99;55.74;102346.63;4959591;28;124446;-63
2022/03/16 03:00:43;;;;;;;23.05;13.02;;;;;;;6.99;55.70;102349.25;4957666;28;110964;-63
2022/03/16 03:03:11;;;;;;;25.50;13.50;;;;;;;7.01;55.81;102350.13;4958813;28;109875;-62
2022/03/16 03:05:38;;;;;;;28.15;13.23;;;;;;;7.02;55.90;102357.13;4958628;28;123619;-62
2022/03/16 03:08:06;;;;;;;22.23;12.70;;;;;;;7.01;55.68;102355.38;4953875;28;124174;-62
2022/03/16 03:10:33;;;;;;;24.55;12.65;;;;;;;7.02;55.75;102357.13;4962611;28;109110;-62
2022/03/16 03:13:00;;;;;;;23.25;13.13;;;;;;;7.03;55.72;102353.59;4965869;28;110053;-62
2022/03/16 03:15:27;;;;;;;24.55;13.55;;;;;;;7.04;55.72;102350.06;4957774;28;124999;-62
2022/03/16 03:17:54;;;;;;;26.85;13.90;;;;;;;7.02;55.92;102336.03;4963058;28;124080;-62
2022/03/16 03:20:21;;;;;;;25.55;13.82;;;;;;;7.02;55.81;102341.31;4963468;28;109431;-62
2022/03/16 03:22:49;;;;;;;25.50;14.00;;;;;;;7.00;55.92;102341.31;4962435;28;110280;-62
2022/03/16 03:25:16;;;;;;;24.85;13.57;;;;;;;6.99;55.77;102343.97;4958540;28;124365;-62
2022/03/16 03:27:43;;;;;;;27.98;15.05;;;;;;;6.97;55.83;102335.22;4958012;28;124000;-63
2022/03/16 03:30:11;;;;;;;26.38;13.80;;;;;;;6.97;56.01;102327.31;4957687;28;109387;-62
2022/03/16 03:32:39;;;;;;;25.00;13.88;;;;;;;6.96;55.92;102333.44;4957136;28;109812;-62
2022/03/16 03:35:07;;;;;;;24.42;13.30;;;;;;;6.97;55.87;102327.31;4957716;28;123978;-62
2022/03/16 03:37:36;;;;;;;27.80;14.98;;;;;;;6.97;56.02;102327.31;4964880;28;124614;-62
2022/03/16 03:40:05;;;;;;;25.13;14.27;;;;;;;6.96;56.33;102320.28;4955372;28;109433;-61
2022/03/16 03:42:32;;;;;;;29.58;14.75;;;;;;;6.95;55.97;102329.06;4961758;28;110459;-62
2022/03/16 03:44:59;;;;;;;27.00;14.38;;;;;;;6.94;56.28;102328.19;4961356;28;123853;-62
2022/03/16 03:47:27;;;;;;;26.90;14.05;;;;;;;6.95;56.05;102326.41;4963166;28;123974;-62
2022/03/16 03:49:55;;;;;;;26.95;14.57;;;;;;;6.95;56.40;102329.94;4962320;28;111139;-62
2022/03/16 03:52:22;;;;;;;30.20;15.40;;;;;;;6.97;56.36;102335.22;4967377;28;110033;-62
2022/03/16 03:54:49;;;;;;;28.55;15.68;;;;;;;6.96;56.34;102328.19;4965192;28;124027;-62
2022/03/16 03:57:16;;;;;;;29.92;14.68;;;;;;;6.95;56.16;102334.31;4959958;28;124273;-62
2022/03/16 03:59:44;;;;;;;26.63;14.60;;;;;;;6.95;56.29;102331.69;4957196;28;109501;-62
2022/03/16 04:02:11;;;;;;;28.60;14.85;;;;;;;6.95;56.42;102329.06;4960691;28;108822;-62
2022/03/16 04:04:38;;;;;;;29.38;15.35;;;;;;;6.97;56.48;102333.44;4958633;28;123821;-62
2022/03/16 04:07:05;;;;;;;29.35;14.98;;;;;;;6.99;56.27;102330.81;4965801;28;124731;-62
2022/03/16 04:09:32;;;;;;;28.85;14.80;;;;;;;7.02;56.50;102330.78;4961531;28;109255;-62
2022/03/16 04:11:59;;;;;;;27.50;14.75;;;;;;;7.04;56.64;102331.63;4961941;28;109906;-62
2022/03/16 04:14:27;;;;;;;30.90;14.55;;;;;;;7.07;56.40;102336.91;4965481;28;124294;-62
2022/03/16 04:16:54;;;;;;;29.45;15.13;;;;;;;7.11;56.60;102349.16;4959216;28;121643;-62
2022/03/16 04:19:22;;;;;;;28.73;14.55;;;;;;;7.15;56.47;102348.25;4965547;28;108543;-62
2022/03/16 04:21:49;;;;;;;30.33;15.23;;;;;;;7.19;56.67;102355.25;4958207;28;109961;-62
2022/03/16 04:24:16;;;;;;;30.83;15.32;;;;;;;7.22;56.58;102355.22;4965863;28;123955;-62
2022/03/16 04:26:43;;;;;;;32.65;16.02;;;;;;;7.28;56.70;102361.34;4962624;28;123899;-62
2022/03/16 04:29:10;;;;;;;24.65;14.07;;;;;;;7.33;56.70;102351.66;4962294;28;109233;-62
2022/03/16 04:31:37;;;;;;;28.33;14.88;;;;;;;7.37;56.96;102353.38;4967688;28;110086;-62
2022/03/16 04:34:04;;;;;;;28.88;14.80;;;;;;;7.40;56.65;102353.34;4961845;28;124077;-62
2022/03/16 04:36:31;;;;;;;27.38;14.48;;;;;;;7.43;56.70;102355.09;4958195;28;123265;-62
2022/03/16 04:38:59;;;;;;;28.45;14.68;;;;;;;7.45;56.91;102355.97;4961039;28;110040;-62
2022/03/16 04:41:26;;;;;;;27.85;14.20;;;;;;;7.46;56.64;102353.31;4960906;28;109928;-63
2022/03/16 04:43:53;;;;;;;28.30;14.70;;;;;;;7.48;56.47;102353.28;4958461;28;124580;-63
2022/03/16 04:46:20;;;;;;;30.38;14.35;;;;;;;7.49;56.60;102355.06;4964187;28;123578;-62
2022/03/16 04:48:48;;;;;;;30.05;14.15;;;;;;;7.48;56.51;102346.28;4966217;28;109534;-62
2022/03/16 04:51:15;;;;;;;29.70;14.48;;;;;;;7.50;56.90;102348.91;4964014;28;109922;-62
2022/03/16 04:53:42;;;;;;;29.02;14.43;;;;;;;7.51;56.86;102348.00;4960328;28;123699;-62
2022/03/16 04:56:09;;;;;;;28.17;13.75;;;;;;;7.50;56.94;102354.19;4964689;28;123949;-62
2022/03/16 04:58:38;;;;;;;26.25;14.10;;;;;;;7.49;56.80;102348.00;4964208;28;108992;-63
2022/03/16 05:01:05;;;;;;;27.20;13.73;;;;;;;7.50;56.81;102347.13;4964609;28;108989;-62
2022/03/16 05:03:32;;;;;;;27.48;13.63;;;;;;;7.50;56.59;102343.63;4965947;28;123241;-62
2022/03/16 05:05:59;;;;;;;29.73;13.45;;;;;;;7.50;56.50;102341.88;4963662;28;125551;-62
2022/03/16 05:08:27;;;;;;;25.25;13.13;;;;;;;7.50;56.52;102335.72;4962708;28;109315;-62
2022/03/16 05:10:54;;;;;;;25.38;12.93;;;;;;;7.50;56.54;102339.22;4963906;28;109284;-62
2022/03/16 05:13:21;;;;;;;27.48;13.07;;;;;;;7.48;56.76;102341.00;4960646;28;125173;-62
2022/03/16 05:15:48;;;;;;;25.65;13.82;;;;;;;7.47;56.52;102333.97;4957352;28;124292;-63
2022/03/16 05:18:15;;;;;;;23.90;12.30;;;;;;;7.47;56.53;102338.38;4950471;28;109363;-63
2022/03/16 05:20:43;;;;;;;28.27;13.02;;;;;;;7.44;56.30;102334.00;4959926;28;109996;-63
2022/03/16 05:23:11;;;;;;;29.95;12.98;;;;;;;7.43;56.53;102337.50;4960097;28;123943;-63
2022/03/16 05:25:38;;;;;;;25.33;12.25;;;;;;;7.44;56.48;102338.38;4961708;28;123968;-63
2022/03/16 05:28:06;;;;;;;22.52;12.32;;;;;;;7.42;56.41;102338.38;4960396;28;110158;-63
2022/03/16 05:30:33;;;;;;;23.85;11.75;;;;;;;7.41;56.44;102339.28;4955285;28;109286;-63
2022/03/16 05:33:01;;;;;;;24.02;12.20;;;;;;;7.40;56.82;102332.25;4968442;28;124410;-62
2022/03/16 05:35:29;;;;;;;22.88;11.93;;;;;;;7.42;56.63;102346.28;4967639;28;123622;-63
2022/03/16 05:37:57;;;;;;;27.75;12.48;;;;;;;7.42;57.00;102348.94;4959993;28;109729;-63
2022/03/16 05:40:24;;;;;;;25.10;12.23;;;;;;;7.44;56.61;102349.81;4954034;28;110265;-63
2022/03/16 05:42:51;;;;;;;25.80;12.00;;;;;;;7.46;57.03;102353.31;4967485;28;123184;-63
2022/03/16 05:45:22;;;;;;;27.50;12.32;;;;;;;7.47;56.63;102349.78;4957935;28;123922;-63
2022/03/16 05:47:49;;;;;;;27.00;12.25;;;;;;;7.49;56.64;102350.66;4967513;28;109276;-63
2022/03/16 05:50:18;;;;;;;26.17;11.88;;;;;;;7.50;56.60;102349.78;4956041;28;108155;-62
2022/03/16 05:52:46;;;;;;;23.98;11.27;;;;;;;7.49;56.88;102348.00;4962855;28;124313;-62
2022/03/16 05:55:14;;;;;;;24.25;11.57;;;;;;;7.51;56.91;102356.78;4962408;28;124015;-62
2022/03/16 05:57:43;;;;;;;22.40;11.30;;;;;;;7.50;56.63;102355.03;4961534;28;109215;-62
2022/03/16 06:00:14;;;;;;;24.30;11.35;;;;;;;7.52;56.72;102353.25;4959872;28;109778;-61
2022/03/16 06:02:46;;;;;;;19.95;10.60;;;;;;;7.50;56.62;102344.50;4952348;28;123975;-63
2022/03/16 06:05:14;;;;;;;22.55;10.70;;;;;;;7.49;56.77;102353.28;4960476;28;123739;-61
2022/03/16 06:07:43;;;;;;;24.00;10.90;;;;;;;7.48;56.75;102356.81;4962022;28;109681;-62
2022/03/16 06:10:15;;;;;;;19.42;9.77;;;;;;;7.49;57.16;102353.28;4959849;28;110065;-62
2022/03/16 06:12:57;;;;;;;18.98;9.18;;;;;;;7.50;56.76;102349.78;4961829;28;124119;-63
2022/03/16 06:15:26;;;;;;;18.50;9.45;;;;;;;7.52;56.79;102360.31;4961907;28;123791;-63
2022/03/16 06:17:58;;;;;;;19.70;9.30;;;;;;;7.52;56.84;102358.53;4953826;28;110183;-63
2022/03/16 06:20:28;;;;;;;17.52;9.57;;;;;;;7.54;56.91;102356.75;4958297;28;109888;-63
2022/03/16 06:22:56;;;;;;;21.23;9.07;;;;;;;7.55;57.10;102358.53;4963162;28;124139;-63
2022/03/16 06:25:24;;;;;;;18.90;8.93;;;;;;;7.58;56.92;102358.47;4963862;28;124670;-63
2022/03/16 06:27:52;;;;;;;19.15;10.15;;;;;;;7.59;56.97;102365.53;4958158;28;109231;-63
2022/03/16 06:30:20;;;;;;;16.33;8.85;;;;;;;7.62;57.16;102363.75;4962043;28;109782;-63
2022/03/16 06:32:47;;;;;;;18.75;9.25;;;;;;;7.64;56.92;102359.31;4965180;28;123892;-62
2022/03/16 06:35:16;;;;;;;16.50;9.00;;;;;;;7.68;57.04;102358.41;4956853;28;124139;-62
2022/03/16 06:37:44;;;;;;;22.98;9.43;;;;;;;7.70;56.95;102362.75;4961329;28;109269;-62
2022/03/16 06:40:13;;;;;;;18.35;8.77;;;;;;;7.75;57.16;102365.38;4953528;28;108886;-63
2022/03/16 06:42:53;;;;;;;15.35;8.10;;;;;;;7.79;57.48;102372.38;4945086;28;122772;-62
2022/03/16 06:45:22;;;;;;;17.35;8.50;;;;;;;7.84;57.42;102370.56;4957673;28;124276;-62
2022/03/16 06:47:50;;;;;;;18.23;9.02;;;;;;;7.90;57.52;102370.50;4959377;28;108862;-62
2022/03/16 06:50:18;;;;;;;18.08;8.55;;;;;;;7.97;57.63;102371.34;4960185;28;109370;-62
2022/03/16 06:52:46;;;;;;;18.10;8.68;;;;;;;8.04;57.67;102367.72;4958696;28;124687;-62
2022/03/16 06:55:14;;;;;;;16.73;7.72;;;;;;;8.13;57.45;102372.06;4951436;28;123873;-62
2022/03/16 06:57:41;;;;;;;19.02;8.82;;;;;;;8.23;57.43;102384.28;4950169;28;109079;-62
2022/03/16 07:00:09;;;;;;;15.95;7.85;;;;;;;8.35;57.52;102378.84;4951090;28;108696;-62
2022/03/16 07:02:53;;;;;;;17.50;8.43;;;;;;;8.48;57.92;102378.75;4951286;28;124531;-62
2022/03/16 07:05:23;;;;;;;14.27;7.50;;;;;;;8.60;57.69;102373.31;4958682;28;123904;-62
2022/03/16 07:07:51;;;;;;;15.73;7.13;;;;;;;8.73;57.97;102369.63;4966086;28;110849;-62
2022/03/16 07:10:20;;;;;;;13.90;6.82;;;;;;;8.88;57.91;102378.25;4948460;28;109088;-62
2022/03/16 07:12:47;;;;;;;12.98;7.10;;;;;;;9.02;57.96;102368.34;4959924;28;123848;-64
2022/03/16 07:15:15;;;;;;;14.70;7.20;;;;;;;9.18;57.70;102360.25;4963140;28;127214;-61
2022/03/16 07:17:42;;;;;;;14.40;6.43;;;;;;;9.32;57.89;102352.94;4954761;28;110118;-62
2022/03/16 07:20:11;;;;;;;13.80;6.75;;;;;;;9.47;57.60;102352.69;4954617;28;108329;-62
2022/03/16 07:22:39;;;;;;;11.85;6.03;;;;;;;9.62;57.80;102356.00;4954786;28;122840;-62
2022/03/16 07:25:21;;;;;;;14.40;6.88;;;;;;;9.77;57.46;102354.88;4953691;28;124251;-62
2022/03/16 07:27:49;;;;;;;13.02;6.47;;;;;;;9.88;57.26;102348.47;4954001;28;109184;-62
2022/03/16 07:30:17;;;;;;;11.35;6.80;;;;;;;10.01;57.55;102337.69;4952984;28;108855;-62
2022/03/16 07:32:46;;;;;;;13.10;5.93;;;;;;;10.13;57.19;102324.19;4967082;28;124870;-62
2022/03/16 07:35:14;;;;;;;11.38;6.15;;;;;;;10.27;56.84;102324.81;4973614;28;123745;-62
2022/03/16 07:37:42;;;;;;;12.50;6.22;;;;;;;10.37;56.98;102329.97;4971849;28;108979;-62
2022/03/16 07:40:10;;;;;;;12.50;6.38;;;;;;;10.49;56.97;102319.09;4973156;28;109117;-62
2022/03/16 07:42:37;;;;;;;12.52;6.45;;;;;;;10.61;56.53;102324.16;4973644;28;124681;-63
2022/03/16 07:45:05;;;;;;;13.25;6.72;;;;;;;10.71;56.24;102309.78;4970503;28;123210;-62
2022/03/16 07:47:34;;;;;;;12.25;6.32;;;;;;;10.80;56.39;102307.84;4956651;28;109342;-62
2022/03/16 07:50:07;;;;;;;12.07;6.50;;;;;;;10.90;56.32;102309.38;4955596;28;108841;-62
2022/03/16 07:52:35;;;;;;;12.23;6.53;;;;;;;11.00;56.33;102310.94;4953944;28;125463;-62
2022/03/16 07:55:04;;;;;;;11.60;6.45;;;;;;;11.09;56.39;102305.41;4955413;28;124221;-62
2022/03/16 07:57:31;;;;;;;11.93;6.15;;;;;;;11.20;56.46;102307.78;4952608;28;110382;-63
2022/03/16 07:59:59;;;;;;;12.68;6.32;;;;;;;11.31;56.12;102310.19;4954837;28;109388;-63
2022/03/16 08:02:27;;;;;;;13.95;7.63;;;;;;;11.41;55.78;102308.19;4965347;28;124811;-62
2022/03/16 08:04:58;;;;;;;12.82;6.90;;;;;;;11.49;55.92;102304.44;4973044;28;124188;-62
2022/03/16 08:07:29;;;;;;;13.52;6.50;;;;;;;11.59;55.47;102314.81;4974733;28;108177;-63
2022/03/16 08:09:57;;;;;;;11.38;6.38;;;;;;;11.67;55.63;102307.50;4972808;28;109308;-62
2022/03/16 08:12:25;;;;;;;11.18;6.53;;;;;;;11.76;55.43;102307.28;4971932;28;124123;-62
2022/03/16 08:14:54;;;;;;;10.95;6.35;;;;;;;11.84;55.22;102305.28;4973365;28;124565;-62
2022/03/16 08:17:22;;;;;;;11.77;6.45;;;;;;;11.94;55.15;102310.38;4973807;28;109544;-63
2022/03/16 08:19:50;;;;;;;10.77;6.88;;;;;;;12.00;55.11;102305.78;4973933;28;108389;-64
2022/03/16 08:22:32;;;;;;;12.70;6.97;;;;;;;12.07;55.03;102311.78;4974154;28;124689;-61
2022/03/16 08:25:04;;;;;;;13.27;6.70;;;;;;;12.11;54.49;102308.16;4972747;28;124597;-63
2022/03/16 08:27:32;;;;;;;11.52;7.20;;;;;;;12.14;54.34;102300.06;4973129;28;109167;-61
2022/03/16 08:30:00;;;;;;;13.50;7.10;;;;;;;12.15;54.27;102293.88;4972281;28;109490;-62
2022/03/16 08:32:27;;;;;;;12.93;7.32;;;;;;;12.17;54.22;102302.66;4974213;28;123269;-60
2022/03/16 08:34:54;;;;;;;13.10;7.40;;;;;;;12.21;54.37;102309.63;4973614;28;122730;-63
2022/03/16 08:37:22;;;;;;;14.77;7.55;;;;;;;12.23;54.06;102307.78;4972781;28;109461;-62
2022/03/16 08:39:49;;;;;;;13.27;7.53;;;;;;;12.26;54.00;102299.75;4966462;28;109444;-62
2022/03/16 08:42:17;;;;;;;14.20;7.53;;;;;;;12.30;54.00;102302.28;4937827;28;123169;-62
2022/03/16 08:44:45;;;;;;;13.88;7.25;;;;;;;12.34;54.05;102303.94;4953604;28;123492;-61
2022/03/16 08:47:16;;;;;;;12.75;7.32;;;;;;;12.41;53.94;102310.81;4962830;28;110355;-63
2022/03/16 08:49:45;;;;;;;12.23;7.95;;;;;;;12.46;53.81;102314.22;4960309;28;110456;-60
2022/03/16 08:52:12;;;;;;;12.27;6.78;;;;;;;12.50;53.62;102299.91;4955795;28;124123;-61
2022/03/16 08:54:41;;;;;;;12.20;6.95;;;;;;;12.55;53.56;102297.16;4964365;28;123749;-62
2022/03/16 08:57:08;;;;;;;12.27;7.45;;;;;;;12.58;53.36;102297.94;4957136;28;109489;-63
2022/03/16 08:59:37;;;;;;;11.75;6.82;;;;;;;12.64;53.60;102287.09;4971474;28;109155;-63
2022/03/16 09:02:06;;;;;;;13.60;7.45;;;;;;;12.72;53.61;102283.34;4964917;28;123880;-62
2022/03/16 09:04:34;;;;;;;13.27;7.50;;;;;;;12.81;53.37;102288.38;4971746;28;124454;-63
2022/03/16 09:07:02;;;;;;;11.20;6.90;;;;;;;12.89;53.24;102291.66;4967252;28;109143;-62
2022/03/16 09:09:30;;;;;;;13.57;7.03;;;;;;;12.98;53.26;102295.81;4958203;28;108857;-63
2022/03/16 09:11:57;;;;;;;13.05;7.22;;;;;;;13.03;53.12;102294.75;4951809;28;124009;-62
2022/03/16 09:14:25;;;;;;;11.68;6.57;;;;;;;13.12;53.03;102284.72;4955476;28;123988;-61
2022/03/16 09:16:53;;;;;;;12.57;7.30;;;;;;;13.22;52.72;102278.16;4954121;28;108131;-62
2022/03/16 09:19:20;;;;;;;13.32;7.43;;;;;;;13.31;52.79;102283.22;4970622;28;108924;-62
2022/03/16 09:21:49;;;;;;;13.80;7.25;;;;;;;13.42;52.58;102291.72;4971193;28;124585;-63
2022/03/16 09:24:17;;;;;;;10.52;6.63;;;;;;;13.50;52.36;102287.94;4973629;28;123828;-62
2022/03/16 09:26:45;;;;;;;12.80;7.28;;;;;;;13.56;51.86;102282.38;4971750;28;109529;-63
2022/03/16 09:29:12;;;;;;;11.43;6.38;;;;;;;13.63;52.10;102287.44;4974795;28;109482;-61
2022/03/16 09:31:42;;;;;;;12.05;6.63;;;;;;;13.73;51.91;102298.66;4969674;28;123939;-63
2022/03/16 09:34:10;;;;;;;12.15;7.25;;;;;;;13.81;51.54;102285.94;4972979;28;122813;-62
2022/03/16 09:36:39;;;;;;;12.20;6.97;;;;;;;13.90;51.74;102281.19;4971428;28;110254;-62
2022/03/16 09:39:06;;;;;;;11.13;7.30;;;;;;;13.98;51.51;102260.50;4971929;28;110103;-63
2022/03/16 09:41:33;;;;;;;14.68;7.20;;;;;;;14.09;51.36;102271.63;4969200;28;123858;-62
2022/03/16 09:44:05;;;;;;;11.88;6.45;;;;;;;14.18;51.09;102265.97;4973146;28;123725;-63
2022/03/16 09:46:35;;;;;;;11.95;6.75;;;;;;;14.30;50.92;102263.78;4972367;28;109090;-62
2022/03/16 09:49:04;;;;;;;10.80;6.63;;;;;;;14.42;51.00;102260.63;4971636;28;109363;-62
2022/03/16 09:51:35;;;;;;;11.45;6.80;;;;;;;14.54;50.79;102261.94;4971541;28;123835;-63
2022/03/16 09:54:03;;;;;;;12.88;7.25;;;;;;;14.67;50.66;102257.03;4973987;28;124369;-63
2022/03/16 09:56:32;;;;;;;11.15;6.75;;;;;;;14.80;50.42;102255.59;4971308;28;109783;-63
2022/03/16 09:59:00;;;;;;;11.95;7.10;;;;;;;14.93;50.40;102256.84;4971513;28;109336;-62
2022/03/16 10:01:28;;;;;;;11.98;6.63;;;;;;;15.05;49.85;102257.28;4970151;28;124695;-63
2022/03/16 10:04:08;;;;;;;10.13;6.72;;;;;;;15.13;49.54;102260.50;4973458;28;123822;-64
2022/03/16 10:06:36;;;;;;;11.43;6.82;;;;;;;15.19;49.24;102261.13;4973987;28;109404;-64
2022/03/16 10:15:10;;;;;;;9.70;6.05;;;;;;;15.37;48.60;102254.16;4973294;28;124369;-64
2022/03/16 10:17:45;;;;;;;11.73;6.65;;;;;;;15.44;48.40;102248.53;4970678;28;109470;-63
2022/03/16 10:20:28;;;;;;;11.45;6.40;;;;;;;15.49;48.46;102262.56;4971038;28;109012;-63
2022/03/16 10:22:55;;;;;;;9.88;6.32;;;;;;;15.57;48.25;102244.41;4973411;28;123828;-63
2022/03/16 10:25:23;;;;;;;16.20;7.20;;;;;;;15.64;48.00;102259.22;4972406;28;122730;-64
2022/03/16 10:27:50;;;;;;;12.65;7.25;;;;;;;15.69;47.79;102254.56;4971073;28;110483;-63
2022/03/16 10:30:19;;;;;;;10.10;5.90;;;;;;;15.74;47.67;102263.25;4970210;28;109915;-64
2022/03/16 10:32:53;;;;;;;12.32;6.70;;;;;;;15.73;46.98;102245.50;4971585;28;124261;-63
2022/03/16 10:35:23;;;;;;;9.90;6.53;;;;;;;15.76;47.05;102265.84;4971369;28;124456;-63
2022/03/16 10:37:51;;;;;;;10.55;6.80;;;;;;;15.79;46.79;102259.53;4973616;28;109344;-63
2022/03/16 10:40:20;;;;;;;17.05;8.02;;;;;;;15.80;46.90;102263.91;4973214;28;109309;-64
2022/03/16 10:48:33;;;;;;;;;;;;;;;15.96;47.48;102256.97;4971188;28;109497;-64
2022/03/16 10:51:02;;;;;;;11.52;6.70;;;;;;;16.05;47.01;102251.19;4971026;28;108463;-64
2022/03/16 10:53:31;;;;;;;11.05;7.10;;;;;;;16.11;46.82;102255.41;4972182;28;98841;-64
2022/03/16 10:56:02;;;;;;;11.20;6.85;;;;;;;16.18;46.77;102250.63;4970820;28;124444;-64
2022/03/16 10:58:30;;;;;;;12.18;7.25;;;;;;;16.25;46.60;102236.91;4973012;28;109547;-65
2022/03/16 11:00:58;;;;;;;11.98;7.57;;;;;;;16.35;46.47;102250.72;4971741;28;107786;-64
2022/03/16 11:03:26;;;;;;;12.00;7.68;;;;;;;16.42;46.43;102249.47;4971972;28;124658;-63
2022/03/16 11:05:55;;;;;;;12.13;7.57;;;;;;;16.45;45.73;102249.34;4971242;28;124180;-63
2022/03/16 11:08:25;;;;;;;12.32;7.38;;;;;;;16.46;45.83;102240.41;4970748;28;109008;-63
2022/03/16 11:10:52;;;;;;;10.40;6.68;;;;;;;16.50;45.84;102236.63;4972641;28;108879;-63
2022/03/16 11:13:30;;;;;;;12.07;7.75;;;;;;;16.52;45.48;102233.88;4971723;28;124426;-63
2022/03/16 11:15:59;;;;;;;12.52;7.50;;;;;;;16.53;45.49;102231.13;4968937;28;124624;-63
2022/03/16 11:18:27;;;;;;;12.65;7.18;;;;;;;16.58;45.95;102233.59;4970593;28;110185;-62
2022/03/16 11:21:09;;;;;;;11.55;7.25;;;;;;;16.65;45.29;102224.31;4972755;28;109012;-62
2022/03/16 11:26:49;;;;;;;14.63;7.88;;;;;;;16.72;45.09;102230.22;4963176;28;124837;-62
2022/03/16 11:29:42;;;;;;;10.32;6.85;;;;;;;16.76;45.40;102221.09;4962317;28;109334;-63
2022/03/16 11:32:10;;;;;;;11.35;7.20;;;;;;;16.81;45.26;102213.72;4965441;28;108112;-63